Time;durP1;ratioP1;P1;durP2;ratioP2;P2;SDS_P1;SDS_P2;PMS_P1;PMS_P2;Temp;Humidity;BMP_temperature;BMP_pressure;BME280_temperature;BME280_humidity;BME280_pressure;Samples;Min_cycle;Max_cycle;Signal;HPM_P1;HPM_P2
2023/09/16 00:01:03;;;;;;;8.00;5.53;;;14.10;99.90;;;;;;4988991;28;20034;-82
2023/09/16 00:03:28;;;;;;;7.72;5.70;;;14.10;99.90;;;;;;5001379;28;20435;-82
2023/09/16 00:05:54;;;;;;;8.13;5.45;;;14.10;99.90;;;;;;5004706;28;20044;-82
2023/09/16 00:08:19;;;;;;;8.68;5.70;;;14.00;99.90;;;;;;5006580;28;20058;-81
2023/09/16 00:10:45;;;;;;;8.10;5.63;;;13.90;99.90;;;;;;5004615;28;20040;-82
2023/09/16 00:13:11;;;;;;;7.85;5.70;;;13.90;99.90;;;;;;4992294;28;20026;-82
2023/09/16 00:15:36;;;;;;;8.38;5.47;;;13.80;99.90;;;;;;5005739;28;20050;-82
2023/09/16 00:18:02;;;;;;;8.13;5.47;;;13.80;99.90;;;;;;5006630;28;20053;-82
2023/09/16 00:20:28;;;;;;;12.20;5.32;;;13.70;99.90;;;;;;4991603;28;20117;-83
2023/09/16 00:22:54;;;;;;;9.75;6.40;;;13.70;99.90;;;;;;5004423;28;20072;-83
2023/09/16 00:25:19;;;;;;;7.85;6.03;;;13.70;99.90;;;;;;5004668;28;20057;-83
2023/09/16 00:27:45;;;;;;;8.50;6.45;;;13.60;99.90;;;;;;5003128;28;20579;-83
2023/09/16 00:30:11;;;;;;;9.07;5.95;;;13.60;99.90;;;;;;5005452;28;20531;-82
2023/09/16 00:32:37;;;;;;;7.20;5.53;;;13.60;99.90;;;;;;5003674;28;20081;-83
2023/09/16 00:35:03;;;;;;;6.07;5.47;;;13.60;99.90;;;;;;5000888;28;20114;-82
2023/09/16 00:37:29;;;;;;;9.00;6.07;;;13.60;99.90;;;;;;4986907;28;20023;-83
2023/09/16 00:39:55;;;;;;;7.38;6.00;;;13.60;99.90;;;;;;5000556;28;20035;-82
2023/09/16 00:42:21;;;;;;;8.52;6.10;;;13.60;99.90;;;;;;5005335;28;20117;-82
2023/09/16 00:44:47;;;;;;;9.43;6.18;;;13.60;99.90;;;;;;5005366;28;20029;-82
2023/09/16 00:47:13;;;;;;;7.50;5.97;;;13.60;99.90;;;;;;5006012;28;20475;-83
2023/09/16 00:49:40;;;;;;;8.57;6.35;;;13.60;99.90;;;;;;5005612;28;20111;-83
2023/09/16 00:52:06;;;;;;;9.13;5.57;;;13.60;99.90;;;;;;4990766;28;20090;-83
2023/09/16 00:54:32;;;;;;;12.95;6.80;;;13.60;99.90;;;;;;4986477;28;20050;-82
2023/09/16 00:57:01;;;;;;;11.15;6.88;;;13.60;99.90;;;;;;4987329;28;20026;-83
2023/09/16 00:59:28;;;;;;;8.95;6.30;;;13.60;99.90;;;;;;4993948;28;20132;-84
2023/09/16 01:01:55;;;;;;;8.38;6.30;;;13.60;99.90;;;;;;5005564;28;20495;-84
2023/09/16 01:04:24;;;;;;;8.13;6.25;;;13.70;99.90;;;;;;4989281;28;20073;-83
2023/09/16 01:06:51;;;;;;;9.73;6.93;;;13.70;99.90;;;;;;4985748;28;20408;-85
2023/09/16 01:09:19;;;;;;;12.00;7.07;;;13.70;99.90;;;;;;4992089;28;20026;-84
2023/09/16 01:11:45;;;;;;;10.50;7.22;;;13.70;99.90;;;;;;4997570;28;20023;-82
2023/09/16 01:14:11;;;;;;;11.65;6.70;;;13.70;99.90;;;;;;4986965;28;20399;-84
2023/09/16 01:16:47;;;;;;;8.68;7.15;;;13.60;99.90;;;;;;5002437;28;20034;-84
2023/09/16 01:19:42;;;;;;;9.70;5.80;;;13.60;99.90;;;;;;5005721;28;20048;-83
2023/09/16 01:22:09;;;;;;;8.30;6.65;;;13.60;99.90;;;;;;5005297;28;20470;-84
2023/09/16 01:24:34;;;;;;;8.77;6.47;;;13.60;99.90;;;;;;5005851;28;20033;-83
2023/09/16 01:27:00;;;;;;;7.63;5.82;;;13.60;99.90;;;;;;5006390;28;20467;-83
2023/09/16 01:29:27;;;;;;;8.35;5.97;;;13.50;99.90;;;;;;5004875;28;20044;-83
2023/09/16 01:31:58;;;;;;;7.55;5.97;;;13.50;99.90;;;;;;5001466;28;20041;-82
2023/09/16 01:34:32;;;;;;;10.18;6.75;;;13.40;99.90;;;;;;5001353;28;20388;-83
2023/09/16 01:36:59;;;;;;;8.52;6.15;;;13.40;99.90;;;;;;4984797;28;20484;-83
2023/09/16 01:39:29;;;;;;;8.55;6.05;;;13.30;99.90;;;;;;4990144;28;20433;-83
2023/09/16 01:41:56;;;;;;;8.00;5.85;;;13.20;99.90;;;;;;5005403;28;20132;-83
2023/09/16 01:44:22;;;;;;;9.13;5.88;;;13.20;99.90;;;;;;5004873;28;20030;-84
2023/09/16 01:46:47;;;;;;;7.95;5.53;;;13.20;99.90;;;;;;5005085;28;20026;-83
2023/09/16 01:49:13;;;;;;;9.00;6.13;;;13.20;99.90;;;;;;5001465;28;20070;-85
2023/09/16 01:51:38;;;;;;;7.32;6.18;;;13.20;99.90;;;;;;4995975;28;20030;-84
2023/09/16 01:54:04;;;;;;;9.10;6.20;;;13.20;99.90;;;;;;4987331;28;20026;-83
2023/09/16 01:56:30;;;;;;;9.15;6.03;;;13.20;99.90;;;;;;4997580;28;20044;-84
2023/09/16 01:58:57;;;;;;;8.27;6.18;;;13.20;99.90;;;;;;5005771;28;20455;-85
2023/09/16 02:01:23;;;;;;;9.57;6.43;;;13.20;99.90;;;;;;5005970;28;20066;-86
2023/09/16 02:03:48;;;;;;;8.63;6.45;;;13.20;99.90;;;;;;5005924;28;20458;-84
2023/09/16 02:06:14;;;;;;;8.60;7.10;;;13.30;99.90;;;;;;5006792;28;20044;-85
2023/09/16 02:08:39;;;;;;;9.68;6.85;;;13.30;99.90;;;;;;5006369;28;20045;-85
2023/09/16 02:11:05;;;;;;;9.68;6.35;;;13.30;99.90;;;;;;4992558;28;20092;-85
2023/09/16 02:13:35;;;;;;;10.98;6.65;;;13.30;99.90;;;;;;4998926;28;20049;-85
2023/09/16 02:16:01;;;;;;;8.68;6.90;;;13.30;99.90;;;;;;5006456;28;20057;-85
2023/09/16 02:18:27;;;;;;;9.93;7.32;;;13.30;99.90;;;;;;5004928;28;20638;-84
2023/09/16 02:20:52;;;;;;;8.55;6.60;;;13.30;99.90;;;;;;5006750;28;20034;-85
2023/09/16 02:23:18;;;;;;;9.35;6.90;;;13.30;99.90;;;;;;5005045;28;20026;-85
2023/09/16 02:25:44;;;;;;;10.70;7.05;;;13.40;99.90;;;;;;5006942;28;20101;-85
2023/09/16 02:28:09;;;;;;;9.40;7.28;;;13.40;99.90;;;;;;5003577;28;20133;-86
2023/09/16 02:30:35;;;;;;;9.02;6.50;;;13.40;99.90;;;;;;5005368;28;20915;-85
2023/09/16 02:33:01;;;;;;;8.68;5.97;;;13.40;99.90;;;;;;4992312;28;20034;-85
2023/09/16 02:35:26;;;;;;;7.65;5.55;;;13.30;99.90;;;;;;4989465;28;20104;-85
2023/09/16 02:37:52;;;;;;;8.00;5.57;;;13.30;99.90;;;;;;4999768;28;20352;-85
2023/09/16 02:40:17;;;;;;;6.85;5.40;;;13.40;99.90;;;;;;5006189;28;20120;-84
2023/09/16 02:42:43;;;;;;;7.90;6.00;;;13.30;99.90;;;;;;5007355;28;20037;-85
2023/09/16 02:45:09;;;;;;;7.68;5.90;;;13.40;99.90;;;;;;5007360;28;20502;-85
2023/09/16 02:47:34;;;;;;;7.30;5.45;;;13.30;99.90;;;;;;5006656;28;20041;-84
2023/09/16 02:50:00;;;;;;;7.18;5.97;;;13.30;99.90;;;;;;5006514;28;20340;-85
2023/09/16 02:52:26;;;;;;;7.32;5.70;;;13.30;99.90;;;;;;4993213;28;20041;-85
2023/09/16 02:54:51;;;;;;;8.13;5.20;;;13.30;99.90;;;;;;5006682;28;20061;-86
2023/09/16 02:57:17;;;;;;;7.93;5.63;;;13.30;99.90;;;;;;5005810;28;20121;-85
2023/09/16 02:59:43;;;;;;;9.43;5.85;;;13.30;99.90;;;;;;5006235;28;20714;-86
2023/09/16 03:02:08;;;;;;;7.55;5.93;;;13.30;99.90;;;;;;5007221;28;20018;-87
2023/09/16 03:04:34;;;;;;;9.48;6.63;;;13.30;99.90;;;;;;5005822;28;20061;-85
2023/09/16 03:07:00;;;;;;;9.98;6.97;;;13.30;99.90;;;;;;5006194;28;20080;-85
2023/09/16 03:09:25;;;;;;;11.43;7.28;;;13.30;99.90;;;;;;5007652;28;20495;-86
2023/09/16 03:11:51;;;;;;;10.80;7.18;;;13.30;99.90;;;;;;5007008;28;20036;-86
2023/09/16 03:14:16;;;;;;;9.38;6.18;;;13.30;99.90;;;;;;5001676;28;20030;-85
2023/09/16 03:16:42;;;;;;;8.65;6.63;;;13.30;99.90;;;;;;4998026;28;20136;-86
2023/09/16 03:19:08;;;;;;;9.88;6.38;;;13.30;99.90;;;;;;5006637;28;20050;-87
2023/09/16 03:21:34;;;;;;;9.38;6.90;;;13.40;99.90;;;;;;5005522;28;20030;-85
2023/09/16 03:23:59;;;;;;;7.82;5.63;;;13.40;99.90;;;;;;5006734;28;20026;-85
2023/09/16 03:26:25;;;;;;;8.82;5.57;;;13.40;99.90;;;;;;5006525;28;20245;-86
2023/09/16 03:28:54;;;;;;;8.35;5.57;;;13.40;99.90;;;;;;5007162;28;20192;-86
2023/09/16 03:31:20;;;;;;;10.30;6.22;;;13.40;99.90;;;;;;4996098;28;20053;-87
2023/09/16 03:33:45;;;;;;;7.80;5.65;;;13.50;99.90;;;;;;5006406;28;20768;-84
2023/09/16 03:36:11;;;;;;;9.93;6.13;;;13.50;99.90;;;;;;5006287;28;20041;-86
2023/09/16 03:38:46;;;;;;;6.68;5.40;;;13.50;99.90;;;;;;5006607;28;20041;-87
2023/09/16 03:41:11;;;;;;;8.00;5.85;;;13.50;99.90;;;;;;5009038;28;20070;-87
2023/09/16 03:43:37;;;;;;;7.28;5.63;;;13.40;99.90;;;;;;5011190;28;20116;-86
2023/09/16 03:46:02;;;;;;;7.57;5.88;;;13.40;99.90;;;;;;5010502;28;20026;-85
2023/09/16 03:48:29;;;;;;;8.68;5.68;;;13.40;99.90;;;;;;5009325;28;20060;-86
2023/09/16 03:50:54;;;;;;;8.98;5.38;;;13.40;99.90;;;;;;5005593;28;20025;-87
2023/09/16 03:53:25;;;;;;;6.82;5.68;;;13.40;99.90;;;;;;5009739;28;20522;-87
2023/09/16 03:55:51;;;;;;;9.67;5.77;;;13.30;99.90;;;;;;5010046;28;20033;-85
2023/09/16 03:58:17;;;;;;;8.50;5.40;;;13.30;99.90;;;;;;5009736;28;20025;-85
2023/09/16 04:00:42;;;;;;;8.27;5.93;;;13.20;99.90;;;;;;5001039;28;20038;-87
2023/09/16 04:03:08;;;;;;;7.43;5.88;;;13.20;99.90;;;;;;4999856;28;20380;-87
2023/09/16 04:05:33;;;;;;;8.90;5.35;;;13.20;99.90;;;;;;4990042;28;20030;-87
2023/09/16 04:07:59;;;;;;;8.77;6.35;;;13.20;99.90;;;;;;5001757;28;20081;-87
2023/09/16 04:10:24;;;;;;;8.88;5.80;;;13.10;99.90;;;;;;5009531;28;20029;-87
2023/09/16 04:12:50;;;;;;;8.35;5.55;;;13.10;99.90;;;;;;5009977;28;20440;-85
2023/09/16 04:15:16;;;;;;;9.27;5.78;;;13.10;99.90;;;;;;4996167;28;20042;-87
2023/09/16 04:17:41;;;;;;;6.97;4.97;;;13.00;99.90;;;;;;5004231;28;20064;-86
2023/09/16 04:20:08;;;;;;;7.20;5.05;;;13.00;99.90;;;;;;5009761;28;20569;-87
2023/09/16 04:22:33;;;;;;;8.77;5.95;;;12.90;99.90;;;;;;5009921;28;20022;-86
2023/09/16 04:24:59;;;;;;;8.15;5.57;;;12.90;99.90;;;;;;5010156;28;20026;-86
2023/09/16 04:27:25;;;;;;;8.63;6.30;;;12.90;99.90;;;;;;5009179;28;20518;-85
2023/09/16 04:29:50;;;;;;;9.48;6.70;;;12.80;99.90;;;;;;5009489;28;20115;-87
2023/09/16 04:32:16;;;;;;;8.02;5.97;;;12.80;99.90;;;;;;5008803;28;20034;-88
2023/09/16 04:34:42;;;;;;;9.20;5.90;;;12.80;99.90;;;;;;5009519;28;20041;-86
2023/09/16 04:37:10;;;;;;;10.38;6.50;;;12.80;99.90;;;;;;5010129;28;20041;-86
2023/09/16 04:39:36;;;;;;;10.25;7.03;;;12.80;99.90;;;;;;5008849;28;20029;-86
2023/09/16 04:42:02;;;;;;;12.82;7.70;;;12.80;99.90;;;;;;5009735;28;20055;-85
2023/09/16 04:44:29;;;;;;;12.05;8.55;;;12.80;99.90;;;;;;5007159;28;20411;-87
2023/09/16 04:46:55;;;;;;;13.38;8.40;;;12.80;99.90;;;;;;5009939;28;20038;-86
2023/09/16 04:49:21;;;;;;;12.90;8.73;;;12.90;99.90;;;;;;5009600;28;20045;-87
2023/09/16 04:51:47;;;;;;;12.77;8.38;;;12.90;99.90;;;;;;5006821;28;20072;-86
2023/09/16 04:54:12;;;;;;;12.88;8.27;;;12.80;99.90;;;;;;5007688;28;20058;-86
2023/09/16 04:56:38;;;;;;;13.10;9.38;;;12.90;99.90;;;;;;5008326;28;20511;-86
2023/09/16 04:59:04;;;;;;;14.00;9.32;;;12.90;99.90;;;;;;5009019;28;20029;-87
2023/09/16 05:01:30;;;;;;;13.68;10.07;;;12.90;99.90;;;;;;5009205;28;20030;-86
2023/09/16 05:03:56;;;;;;;16.33;10.02;;;12.90;99.90;;;;;;4995343;28;20537;-87
2023/09/16 05:06:22;;;;;;;15.48;9.73;;;12.90;99.90;;;;;;4990116;28;20039;-87
2023/09/16 05:08:48;;;;;;;11.55;8.55;;;12.90;99.90;;;;;;5004125;28;20041;-88
2023/09/16 05:11:14;;;;;;;14.32;8.70;;;12.90;99.90;;;;;;5009188;28;20197;-86
2023/09/16 05:13:40;;;;;;;11.35;8.98;;;12.90;99.90;;;;;;5009133;28;20116;-85
2023/09/16 05:16:08;;;;;;;12.50;9.20;;;12.90;99.90;;;;;;5008450;28;20044;-86
2023/09/16 05:18:33;;;;;;;12.02;8.45;;;12.90;99.90;;;;;;5009017;28;20475;-85
2023/09/16 05:20:59;;;;;;;14.32;8.60;;;12.80;99.90;;;;;;5006889;28;20038;-87
2023/09/16 05:23:25;;;;;;;16.95;10.38;;;12.80;99.90;;;;;;5007106;28;20097;-85
2023/09/16 05:25:51;;;;;;;17.27;11.68;;;12.90;99.90;;;;;;5008163;28;20052;-85
2023/09/16 05:28:17;;;;;;;13.68;9.88;;;12.90;99.90;;;;;;5008751;28;20192;-86
2023/09/16 05:30:43;;;;;;;12.88;9.18;;;12.90;99.90;;;;;;5008782;28;20100;-87
2023/09/16 05:33:12;;;;;;;15.68;10.88;;;12.90;99.90;;;;;;5004645;28;20092;-87
2023/09/16 05:35:39;;;;;;;14.18;9.60;;;12.90;99.90;;;;;;5006974;28;20317;-85
2023/09/16 05:38:05;;;;;;;13.50;9.00;;;12.90;99.90;;;;;;5007420;28;20376;-86
2023/09/16 05:40:30;;;;;;;15.15;9.70;;;12.90;99.90;;;;;;5007601;28;20030;-85
2023/09/16 05:42:56;;;;;;;13.63;9.52;;;12.90;99.90;;;;;;4999134;28;20030;-88
2023/09/16 05:45:22;;;;;;;12.13;9.35;;;12.90;99.90;;;;;;4987124;28;20104;-84
2023/09/16 05:47:49;;;;;;;12.27;9.30;;;12.90;99.90;;;;;;4988434;28;20030;-86
2023/09/16 05:50:15;;;;;;;15.25;8.50;;;12.90;99.90;;;;;;5000653;28;20033;-86
2023/09/16 05:52:41;;;;;;;14.95;8.85;;;12.90;99.90;;;;;;5007653;28;20466;-83
2023/09/16 05:55:07;;;;;;;13.20;8.65;;;12.90;99.90;;;;;;4998270;28;20037;-84
2023/09/16 05:57:32;;;;;;;13.23;8.18;;;13.00;99.90;;;;;;5007280;28;20070;-85
2023/09/16 05:59:58;;;;;;;14.00;8.35;;;13.00;99.90;;;;;;5005916;28;20116;-86
2023/09/16 06:02:24;;;;;;;11.40;7.63;;;12.90;99.90;;;;;;5006468;28;20026;-86
2023/09/16 06:04:50;;;;;;;13.07;7.40;;;12.90;99.90;;;;;;5005402;28;20030;-86
2023/09/16 06:07:16;;;;;;;10.80;6.88;;;12.90;99.90;;;;;;5005633;28;20030;-88
2023/09/16 06:09:41;;;;;;;9.90;6.82;;;12.90;99.90;;;;;;4988525;28;20033;-87
2023/09/16 06:12:07;;;;;;;10.05;6.25;;;12.90;99.90;;;;;;5005494;28;20828;-86
2023/09/16 06:14:33;;;;;;;9.35;6.90;;;12.90;99.90;;;;;;5008520;28;20096;-86
2023/09/16 06:16:59;;;;;;;10.63;7.95;;;13.00;99.90;;;;;;5008281;28;20044;-86
2023/09/16 06:19:26;;;;;;;10.32;7.70;;;13.00;99.90;;;;;;5002848;28;20053;-86
2023/09/16 06:21:52;;;;;;;8.20;6.45;;;13.00;99.90;;;;;;4997648;28;20234;-86
2023/09/16 06:24:18;;;;;;;11.60;7.38;;;13.10;99.90;;;;;;5008720;28;20367;-87
2023/09/16 06:26:44;;;;;;;10.35;7.93;;;13.10;99.90;;;;;;5001582;28;20125;-87
2023/09/16 06:29:09;;;;;;;11.65;7.53;;;13.20;99.90;;;;;;4988480;28;20037;-87
2023/09/16 06:31:35;;;;;;;11.18;8.10;;;13.30;99.90;;;;;;4991430;28;20053;-86
2023/09/16 06:34:02;;;;;;;14.82;7.78;;;13.40;99.90;;;;;;5003531;28;20681;-86
2023/09/16 06:36:28;;;;;;;11.38;7.22;;;13.50;99.90;;;;;;4990714;28;20089;-87
2023/09/16 06:38:53;;;;;;;10.95;8.00;;;13.80;99.90;;;;;;4988537;28;20045;-87
2023/09/16 06:41:19;;;;;;;13.70;8.30;;;14.40;99.90;;;;;;4988622;28;20034;-86
2023/09/16 06:43:45;;;;;;;11.68;8.13;;;14.70;99.90;;;;;;4988015;28;20139;-87
2023/09/16 06:46:10;;;;;;;11.68;7.90;;;14.80;99.90;;;;;;4988134;28;20098;-87
2023/09/16 06:48:36;;;;;;;11.50;7.38;;;14.90;99.90;;;;;;4988910;28;20105;-86
2023/09/16 06:51:01;;;;;;;12.48;8.00;;;14.90;99.90;;;;;;5004831;28;20044;-86
2023/09/16 06:53:28;;;;;;;12.70;7.65;;;14.90;99.90;;;;;;5008366;28;20061;-86
2023/09/16 06:55:53;;;;;;;12.00;7.63;;;15.00;99.90;;;;;;5007219;28;20038;-86
2023/09/16 06:58:20;;;;;;;11.45;7.60;;;15.00;99.90;;;;;;5007866;28;20033;-86
2023/09/16 07:00:48;;;;;;;12.73;8.23;;;15.00;99.90;;;;;;5003935;28;20026;-88
2023/09/16 07:03:13;;;;;;;15.23;8.55;;;15.00;99.90;;;;;;5005805;28;20026;-86
2023/09/16 07:05:39;;;;;;;13.10;9.10;;;15.10;99.90;;;;;;5007164;28;20041;-85
2023/09/16 07:08:05;;;;;;;13.85;8.65;;;15.10;99.90;;;;;;5007754;28;20026;-86
2023/09/16 07:10:30;;;;;;;13.70;9.80;;;15.20;99.90;;;;;;5007760;28;20081;-87
2023/09/16 07:12:56;;;;;;;13.95;9.40;;;15.30;99.90;;;;;;5007842;28;20026;-86
2023/09/16 07:15:22;;;;;;;18.25;10.60;;;15.40;99.90;;;;;;5006745;28;20033;-86
2023/09/16 07:17:48;;;;;;;14.95;10.25;;;15.50;99.90;;;;;;4999253;28;20070;-86
2023/09/16 07:20:13;;;;;;;17.88;11.30;;;15.60;99.90;;;;;;5008642;28;20053;-85
2023/09/16 07:22:39;;;;;;;18.00;10.55;;;15.80;99.90;;;;;;5010801;28;20083;-84
2023/09/16 07:25:08;;;;;;;20.85;10.18;;;15.90;99.90;;;;;;5006694;28;20614;-85
2023/09/16 07:27:33;;;;;;;16.08;11.30;;;16.10;99.90;;;;;;4994073;28;20368;-85
2023/09/16 07:29:59;;;;;;;19.08;11.27;;;16.20;99.90;;;;;;5009206;28;20124;-85
2023/09/16 07:32:25;;;;;;;15.32;9.93;;;16.30;99.90;;;;;;5001999;28;20092;-86
2023/09/16 07:34:50;;;;;;;21.85;11.90;;;16.50;99.90;;;;;;5009886;28;20139;-86
2023/09/16 07:37:16;;;;;;;25.17;14.73;;;17.10;99.90;;;;;;5007617;28;20048;-86
2023/09/16 07:39:41;;;;;;;17.45;12.10;;;17.50;99.90;;;;;;5008100;28;20025;-85
2023/09/16 07:42:07;;;;;;;16.50;9.82;;;17.90;99.90;;;;;;5007522;28;20033;-85
2023/09/16 07:44:32;;;;;;;15.15;9.35;;;19.00;99.90;;;;;;5011944;28;20054;-86
2023/09/16 07:46:58;;;;;;;11.32;8.50;;;19.70;99.90;;;;;;5006141;28;20113;-84
2023/09/16 07:49:23;;;;;;;11.57;7.35;;;20.00;99.90;;;;;;5010112;28;20099;-86
2023/09/16 07:51:49;;;;;;;10.73;6.97;;;20.20;99.90;;;;;;5012856;28;20057;-86
2023/09/16 07:54:15;;;;;;;9.95;7.20;;;20.60;99.90;;;;;;5012279;28;20025;-86
2023/09/16 07:56:41;;;;;;;8.65;5.88;;;22.00;99.90;;;;;;5014108;28;20030;-86
2023/09/16 07:59:07;;;;;;;7.18;5.35;;;24.10;99.90;;;;;;5011056;28;20067;-85
2023/09/16 08:01:32;;;;;;;7.50;5.10;;;26.20;99.90;;;;;;5002506;28;20076;-86
2023/09/16 08:03:58;;;;;;;7.78;4.25;;;27.90;99.90;;;;;;5006496;28;20026;-85
2023/09/16 08:06:26;;;;;;;8.82;4.40;;;29.50;96.50;;;;;;5005100;28;20124;-87
2023/09/16 08:08:52;;;;;;;6.32;3.60;;;30.80;90.80;;;;;;5004603;28;20121;-85
2023/09/16 08:11:17;;;;;;;6.13;3.95;;;32.10;82.90;;;;;;5005509;28;20037;-86
2023/09/16 08:13:43;;;;;;;5.47;3.13;;;33.40;78.90;;;;;;5007369;28;20036;-87
2023/09/16 08:16:09;;;;;;;4.05;2.63;;;34.30;71.10;;;;;;5004213;28;20129;-85
2023/09/16 08:18:34;;;;;;;4.10;2.75;;;35.30;64.70;;;;;;5007062;28;20073;-85
2023/09/16 08:21:01;;;;;;;3.92;2.45;;;36.10;61.70;;;;;;5007703;28;20104;-84
2023/09/16 08:23:26;;;;;;;4.57;2.22;;;36.80;60.70;;;;;;5007116;28;20066;-89
2023/09/16 08:25:52;;;;;;;4.20;2.53;;;37.40;57.60;;;;;;5009520;28;20034;-87
2023/09/16 08:28:17;;;;;;;3.45;2.38;;;38.10;54.50;;;;;;5008036;28;20141;-85
2023/09/16 08:30:43;;;;;;;4.60;2.40;;;38.70;52.70;;;;;;5007691;28;20118;-85
2023/09/16 08:33:09;;;;;;;5.07;2.20;;;39.20;51.60;;;;;;5008105;28;20030;-88
2023/09/16 08:35:35;;;;;;;3.42;1.95;;;39.50;48.00;;;;;;5008009;28;20064;-87
2023/09/16 08:38:02;;;;;;;4.35;2.15;;;40.10;48.60;;;;;;5007830;28;20100;-86
2023/09/16 08:40:31;;;;;;;4.65;1.90;;;40.60;48.00;;;;;;5006505;28;20049;-86
2023/09/16 08:43:20;;;;;;;6.13;2.03;;;40.40;47.00;;;;;;5008257;28;20046;-85
2023/09/16 08:45:59;;;;;;;6.03;2.63;;;40.10;47.90;;;;;;5008552;28;20030;-86
2023/09/16 08:48:26;;;;;;;3.70;2.00;;;39.90;44.50;;;;;;5007829;28;20037;-86
2023/09/16 08:50:54;;;;;;;4.78;2.00;;;39.20;46.30;;;;;;5008247;28;20026;-86
2023/09/16 08:53:21;;;;;;;3.70;1.83;;;38.30;47.70;;;;;;5006462;28;20041;-86
2023/09/16 08:55:48;;;;;;;5.47;1.85;;;37.30;48.70;;;;;;4988716;28;20049;-85
2023/09/16 08:58:15;;;;;;;2.92;1.80;;;36.60;51.90;;;;;;5003355;28;20034;-86
2023/09/16 09:00:40;;;;;;;2.65;1.80;;;36.80;51.60;;;;;;4988515;28;20045;-85
2023/09/16 09:03:06;;;;;;;2.97;1.77;;;37.80;51.80;;;;;;5003549;28;20030;-86
2023/09/16 09:05:34;;;;;;;3.40;1.92;;;39.20;46.10;;;;;;4996507;28;20062;-86
2023/09/16 09:07:59;;;;;;;3.25;1.70;;;40.30;43.90;;;;;;5007821;28;20041;-86
2023/09/16 09:10:25;;;;;;;2.50;1.88;;;40.50;46.10;;;;;;4990306;28;20034;-87
2023/09/16 09:12:51;;;;;;;3.58;1.90;;;40.10;45.80;;;;;;4988378;28;20100;-86
2023/09/16 09:15:17;;;;;;;4.07;1.80;;;39.90;45.40;;;;;;4988942;28;20121;-86
2023/09/16 09:17:54;;;;;;;4.47;1.90;;;39.80;44.40;;;;;;4988635;28;20054;-86
2023/09/16 09:20:23;;;;;;;2.17;1.40;;;39.20;44.60;;;;;;5005505;28;20459;-86
2023/09/16 09:22:50;;;;;;;4.93;1.88;;;38.20;44.70;;;;;;4997637;28;20015;-86
2023/09/16 09:25:24;;;;;;;3.53;1.83;;;37.20;47.40;;;;;;4991082;28;20403;-86
2023/09/16 09:27:51;;;;;;;3.33;1.63;;;36.10;49.10;;;;;;5001394;28;20065;-86
2023/09/16 09:30:21;;;;;;;3.65;1.90;;;35.20;52.20;;;;;;5007028;28;20043;-86
2023/09/16 09:32:47;;;;;;;3.53;1.60;;;35.40;54.10;;;;;;5000796;28;20434;-86
2023/09/16 09:35:13;;;;;;;2.97;1.60;;;36.10;50.80;;;;;;5006332;28;20050;-86
2023/09/16 09:37:39;;;;;;;4.60;1.35;;;37.50;48.90;;;;;;5002405;28;20475;-86
2023/09/16 09:40:10;;;;;;;3.88;1.85;;;38.50;48.30;;;;;;5007486;28;20099;-86
2023/09/16 09:42:47;;;;;;;4.25;1.60;;;39.60;46.20;;;;;;5000670;28;20057;-86
2023/09/16 09:45:14;;;;;;;3.03;1.60;;;40.50;44.50;;;;;;4988754;28;20026;-86
2023/09/16 09:47:41;;;;;;;3.88;1.65;;;41.40;43.30;;;;;;5007123;28;20025;-85
2023/09/16 09:50:13;;;;;;;4.95;1.50;;;41.50;44.50;;;;;;5007718;28;20063;-86
2023/09/16 09:52:44;;;;;;;3.42;1.50;;;41.80;43.50;;;;;;5006312;28;20376;-86
2023/09/16 09:55:10;;;;;;;2.78;1.40;;;42.00;42.10;;;;;;5003838;28;20049;-87
2023/09/16 09:57:36;;;;;;;2.33;1.60;;;41.60;42.30;;;;;;5004407;28;20026;-87
2023/09/16 10:00:02;;;;;;;3.88;1.75;;;41.20;42.60;;;;;;4997770;28;20041;-86
2023/09/16 10:02:29;;;;;;;2.17;1.55;;;41.00;43.30;;;;;;5006669;28;20447;-87
2023/09/16 10:05:01;;;;;;;3.80;1.52;;;41.40;44.70;;;;;;5007448;28;20066;-86
2023/09/16 10:07:28;;;;;;;3.38;1.30;;;41.90;41.00;;;;;;5006660;28;20089;-87
2023/09/16 10:09:54;;;;;;;2.53;1.30;;;42.60;42.60;;;;;;5002731;28;20125;-87
2023/09/16 10:12:21;;;;;;;2.50;1.60;;;43.50;39.40;;;;;;5003866;28;20116;-88
2023/09/16 10:14:48;;;;;;;2.90;1.58;;;44.20;38.50;;;;;;5003012;28;20087;-87
2023/09/16 10:17:14;;;;;;;3.05;1.40;;;44.90;39.50;;;;;;5005315;28;20036;-86
2023/09/16 10:19:40;;;;;;;2.25;1.20;;;45.30;38.90;;;;;;5003642;28;20045;-87
2023/09/16 10:22:06;;;;;;;1.30;1.10;;;45.90;37.90;;;;;;5006852;28;20045;-88
2023/09/16 10:24:31;;;;;;;2.78;1.23;;;45.80;36.10;;;;;;5004962;28;20129;-86
2023/09/16 10:27:01;;;;;;;1.40;1.25;;;45.90;36.20;;;;;;5006081;28;20147;-87
2023/09/16 10:29:30;;;;;;;1.50;1.20;;;45.70;36.00;;;;;;5008127;28;20026;-87
2023/09/16 10:31:55;;;;;;;4.35;1.33;;;45.40;33.50;;;;;;5007642;28;20020;-86
2023/09/16 10:34:21;;;;;;;4.00;1.38;;;45.40;32.70;;;;;;5008248;28;20029;-87
2023/09/16 10:36:48;;;;;;;2.20;1.35;;;45.20;35.30;;;;;;5008399;28;20574;-87
2023/09/16 10:39:15;;;;;;;1.48;1.30;;;45.40;35.70;;;;;;5002377;28;20053;-87
2023/09/16 10:41:43;;;;;;;2.88;1.33;;;45.20;33.80;;;;;;5004677;28;20030;-88
2023/09/16 10:44:12;;;;;;;1.58;1.42;;;45.20;35.50;;;;;;5007710;28;20038;-88
2023/09/16 10:46:38;;;;;;;2.03;1.50;;;44.80;33.20;;;;;;5000974;28;20030;-85
2023/09/16 10:49:04;;;;;;;1.85;1.33;;;44.50;32.80;;;;;;5008175;28;20084;-85
2023/09/16 10:51:39;;;;;;;2.38;1.27;;;44.10;34.30;;;;;;5011563;28;20037;-86
2023/09/16 10:54:29;;;;;;;2.63;1.33;;;43.70;33.30;;;;;;5012948;28;20502;-87
2023/09/16 10:56:58;;;;;;;1.50;1.30;;;43.40;34.30;;;;;;5010481;28;20029;-84
2023/09/16 10:59:28;;;;;;;1.63;1.30;;;42.60;35.40;;;;;;5011958;28;20029;-87
2023/09/16 11:01:57;;;;;;;4.45;1.15;;;42.70;36.50;;;;;;5009694;28;20026;-87
2023/09/16 11:04:23;;;;;;;;;;;43.20;34.40;;;;;;5009425;28;20018;-88
2023/09/16 11:06:52;;;;;;;3.40;1.27;;;43.90;32.30;;;;;;5012522;28;19917;-88
2023/09/16 11:09:20;;;;;;;2.97;1.08;;;44.30;34.80;;;;;;5012323;28;20209;-88
2023/09/16 11:11:47;;;;;;;1.50;1.17;;;44.90;34.60;;;;;;5011873;28;20034;-88
2023/09/16 11:14:14;;;;;;;1.40;1.30;;;44.90;30.70;;;;;;5011889;28;20135;-88
2023/09/16 11:16:48;;;;;;;2.72;1.20;;;43.50;33.00;;;;;;5013286;28;20568;-88
2023/09/16 11:19:15;;;;;;;2.08;1.50;;;42.60;33.70;;;;;;5011170;28;20012;-84
2023/09/16 11:21:43;;;;;;;3.47;1.35;;;41.00;34.30;;;;;;5008187;28;20037;-89
2023/09/16 11:24:10;;;;;;;3.58;1.30;;;39.20;36.00;;;;;;5012101;28;20053;-88
2023/09/16 11:26:39;;;;;;;3.88;1.50;;;37.40;38.20;;;;;;5010152;28;20042;-86
2023/09/16 11:29:22;;;;;;;2.78;1.30;;;35.80;39.70;;;;;;5007477;28;20097;-87
2023/09/16 11:31:48;;;;;;;5.38;1.60;;;34.20;41.10;;;;;;5008492;28;20036;-89
2023/09/16 11:34:18;;;;;;;4.40;1.75;;;33.40;44.90;;;;;;5010932;28;20026;-85
2023/09/16 11:36:48;;;;;;;2.88;1.60;;;32.80;42.80;;;;;;5010271;28;20065;-89
2023/09/16 11:39:15;;;;;;;5.22;1.88;;;31.80;43.60;;;;;;5011319;28;20088;-87
2023/09/16 11:41:41;;;;;;;3.67;1.50;;;31.10;45.60;;;;;;5010132;28;20059;-89
2023/09/16 11:44:08;;;;;;;3.83;1.90;;;30.60;46.90;;;;;;4998763;28;20630;-89
2023/09/16 11:46:34;;;;;;;2.25;1.70;;;30.40;46.70;;;;;;5018892;28;20171;-87
2023/09/16 11:49:04;;;;;;;2.60;1.30;;;30.20;47.00;;;;;;4997852;28;20129;-89
2023/09/16 11:51:31;;;;;;;1.90;1.40;;;30.30;48.50;;;;;;4991228;28;20060;-89
2023/09/16 11:53:57;;;;;;;2.33;1.27;;;30.90;45.70;;;;;;4991143;28;20447;-89
2023/09/16 11:56:25;;;;;;;3.22;1.60;;;31.10;45.40;;;;;;4999469;28;20038;-88
2023/09/16 11:58:54;;;;;;;3.30;1.40;;;31.10;44.20;;;;;;4999222;28;20126;-87
2023/09/16 12:01:22;;;;;;;2.28;1.38;;;30.70;45.80;;;;;;5006172;28;20029;-87
2023/09/16 12:03:49;;;;;;;1.77;1.20;;;30.30;46.80;;;;;;5010576;28;20030;-88
2023/09/16 12:06:17;;;;;;;1.80;1.50;;;30.30;47.00;;;;;;5009720;28;20119;-87
2023/09/16 12:08:45;;;;;;;2.00;1.50;;;30.30;47.80;;;;;;5010662;28;20087;-88
2023/09/16 12:11:11;;;;;;;2.03;1.25;;;30.30;47.60;;;;;;5009141;28;20036;-87
2023/09/16 12:13:39;;;;;;;2.38;1.73;;;30.30;47.20;;;;;;5005599;28;20566;-88
2023/09/16 12:16:05;;;;;;;2.90;1.70;;;30.10;47.80;;;;;;5004734;28;20046;-87
2023/09/16 12:18:31;;;;;;;4.00;1.70;;;29.40;49.80;;;;;;5007909;28;20391;-87
2023/09/16 12:20:56;;;;;;;2.35;1.65;;;29.30;50.70;;;;;;5007718;28;20033;-88
2023/09/16 12:23:24;;;;;;;4.10;1.70;;;29.30;50.60;;;;;;5009322;28;20435;-86
2023/09/16 12:25:50;;;;;;;2.20;1.60;;;29.60;51.80;;;;;;5008653;28;20040;-87
2023/09/16 12:28:21;;;;;;;3.90;2.08;;;29.90;52.20;;;;;;5008706;28;20038;-87
2023/09/16 12:30:47;;;;;;;;;;;30.20;49.90;;;;;;4989747;28;20133;-86
2023/09/16 12:33:13;;;;;;;3.03;1.80;;;30.60;52.40;;;;;;5000277;28;19916;-87
2023/09/16 12:35:39;;;;;;;5.03;1.88;;;30.80;49.50;;;;;;5007662;28;20041;-87
2023/09/16 12:38:05;;;;;;;2.72;1.65;;;30.70;49.50;;;;;;5008108;28;20052;-88
2023/09/16 12:40:33;;;;;;;3.35;1.70;;;31.00;50.40;;;;;;5007880;28;20034;-88